createdAt,value
2022-11-04T00:06:23.888Z,0.52
2022-11-04T00:16:44.155Z,0.60
2022-11-04T00:27:04.539Z,0.60
2022-11-04T00:37:06.677Z,0.65
2022-11-04T00:47:08.424Z,0.38
2022-11-04T00:57:11.028Z,0.70
2022-11-04T01:07:13.893Z,0.45
2022-11-04T01:17:16.652Z,0.60
2022-11-04T01:27:18.389Z,0.40
2022-11-04T01:37:20.136Z,0.30
2022-11-04T01:47:34.714Z,0.60
2022-11-04T01:57:41.214Z,0.57
2022-11-04T02:07:43.075Z,0.70
2022-11-04T02:18:03.294Z,0.30
2022-11-04T02:28:26.903Z,0.30
2022-11-04T02:38:56.635Z,0.30
2022-11-04T02:49:33.697Z,0.30
2022-11-04T02:59:41.833Z,0.30
2022-11-04T03:09:49.910Z,0.28
2022-11-04T03:19:58.867Z,1.45
2022-11-04T03:30:12.111Z,0.43
2022-11-04T03:40:15.642Z,0.20
2022-11-04T03:50:32.440Z,0.10
2022-11-04T04:00:41.657Z,0.30
2022-11-04T04:10:57.719Z,0.20
2022-11-04T04:21:05.031Z,0.10
2022-11-04T04:31:09.377Z,0.30
2022-11-04T04:41:43.505Z,0.40
2022-11-04T04:51:47.556Z,0.20
2022-11-04T05:01:49.560Z,0.57
2022-11-04T05:11:51.449Z,0.10
2022-11-04T05:21:53.294Z,0.20
2022-11-04T05:31:55.101Z,0.30
2022-11-04T05:41:56.925Z,0.22
2022-11-04T05:51:58.675Z,0.10
2022-11-04T06:02:00.597Z,0.17
2022-11-04T06:12:02.463Z,0.13
2022-11-04T06:22:05.272Z,0.20
2022-11-04T06:32:12.238Z,0.88
2022-11-04T06:42:13.991Z,0.20
2022-11-04T06:52:15.738Z,0.20
2022-11-04T07:02:17.718Z,0.10
2022-11-04T07:12:19.580Z,0.10
2022-11-04T07:22:21.403Z,0.10
2022-11-04T07:32:23.299Z,0.20
2022-11-04T07:42:25.162Z,0.10
2022-11-04T07:52:30.105Z,0.38
2022-11-04T08:02:35.151Z,0.10
2022-11-04T08:12:38.194Z,0.10
2022-11-04T08:22:40.026Z,0.30
2022-11-04T08:32:41.846Z,0.22
2022-11-04T08:42:43.646Z,0.10
2022-11-04T08:52:45.700Z,0.20
2022-11-04T09:02:47.490Z,0.28
2022-11-04T09:12:49.270Z,0.20
2022-11-04T09:22:51.077Z,0.10
2022-11-04T09:32:53.120Z,0.10
2022-11-04T09:43:32.295Z,0.10
2022-11-04T09:53:53.203Z,0.10
2022-11-04T10:04:13.773Z,0.13
2022-11-04T10:14:49.770Z,0.20
2022-11-04T10:25:22.208Z,0.08
2022-11-04T10:35:47.139Z,0.15
2022-11-04T10:46:01.535Z,0.10
2022-11-04T10:56:35.559Z,0.10
2022-11-04T11:06:38.579Z,0.45
2022-11-04T11:16:40.374Z,0.10
2022-11-04T11:26:48.077Z,0.10
2022-11-04T11:36:50.560Z,0.10
2022-11-04T11:46:59.420Z,0.10
2022-11-04T11:57:23.962Z,0.15
2022-11-04T12:18:25.645Z,0.20
2022-11-04T12:28:33.102Z,0.17
2022-11-04T12:38:52.752Z,0.10
2022-11-04T12:49:09.487Z,0.15
2022-11-04T12:59:55.053Z,0.10
2022-11-04T13:10:03.786Z,0.30
2022-11-04T13:20:17.358Z,0.13
2022-11-04T13:30:45.930Z,0.17
2022-11-04T13:41:25.280Z,0.20
2022-11-04T13:51:45.499Z,0.32
2022-11-04T14:01:47.579Z,0.00
2022-11-04T14:12:11.018Z,0.10
2022-11-04T14:22:16.797Z,0.20
2022-11-04T14:32:25.122Z,0.10
2022-11-04T14:42:43.748Z,0.10
2022-11-04T14:52:49.993Z,0.10
2022-11-04T15:03:02.178Z,0.10
2022-11-04T15:13:03.957Z,0.20
2022-11-04T15:23:12.453Z,0.20
2022-11-04T15:33:17.953Z,0.30
2022-11-04T15:43:20.428Z,0.65
2022-11-04T15:53:22.290Z,0.00
2022-11-04T16:03:26.427Z,0.20
2022-11-04T16:13:28.214Z,0.28
2022-11-04T16:23:30.070Z,0.32
2022-11-04T16:33:31.892Z,0.30
2022-11-04T16:43:34.104Z,0.28
2022-11-04T16:53:35.892Z,0.47
2022-11-04T17:03:37.656Z,0.30
2022-11-04T17:13:39.726Z,0.65
2022-11-04T17:23:41.654Z,0.20
2022-11-04T17:33:43.418Z,0.20
2022-11-04T17:44:00.496Z,0.20
2022-11-04T17:54:02.708Z,0.20
2022-11-04T18:04:04.708Z,0.22
2022-11-04T18:14:07.549Z,0.10
2022-11-04T18:24:12.358Z,0.10
2022-11-04T18:34:15.820Z,0.20
2022-11-04T18:44:22.303Z,0.22
2022-11-04T18:54:24.113Z,0.10
2022-11-04T19:04:25.900Z,0.10
2022-11-04T19:14:27.670Z,0.10
2022-11-04T19:24:29.521Z,0.20
2022-11-04T19:34:31.357Z,0.20
2022-11-04T19:44:33.304Z,0.28
2022-11-04T19:54:35.569Z,0.30
2022-11-04T20:04:37.485Z,0.20
2022-11-04T20:14:39.352Z,0.47
2022-11-04T20:24:41.253Z,0.30
2022-11-04T20:34:43.015Z,0.20
2022-11-04T20:44:44.776Z,0.38
2022-11-04T20:54:46.621Z,0.47
2022-11-04T21:04:48.398Z,0.43
2022-11-04T21:14:50.140Z,0.20
2022-11-04T21:24:51.906Z,0.40
2022-11-04T21:34:53.714Z,0.90
2022-11-04T21:44:55.453Z,0.82
2022-11-04T21:54:57.236Z,1.20
2022-11-04T22:04:59.074Z,1.23
2022-11-04T22:15:00.860Z,1.10
2022-11-04T22:25:07.379Z,1.00
2022-11-04T22:35:09.378Z,1.30
2022-11-04T22:45:16.409Z,1.77
2022-11-04T22:55:18.577Z,1.50
2022-11-04T23:05:20.684Z,1.48
2022-11-04T23:15:41.168Z,1.73
2022-11-04T23:25:42.985Z,1.15
2022-11-04T23:36:05.880Z,1.70
2022-11-04T23:46:26.439Z,1.38
2022-11-04T23:56:47.404Z,1.42
